X  CloseMetar Aviation Weather Data     YMAV Avalon

Temperature

15°C Temperature

7°C Dewpoint

59% Humidity



Wind

26 KM/H

16 MPH

 7 M/S

14 KTS



250°
West South
West
Current Conditions

Overcast Overcast
Pressure 1025.92 (hPa) - 30.3 (in)
Visibility 6.2 (mi) - 10 (km)
Airport
Airport-code YMAV

Location Avalon 14 (km)

Metar:
YMAV 200630Z AUTO 25014KT 9999 // OVC038 15/07 Q1026 RF00.0/000.2

Time: 20-10-2019 17:30